Terminal Aerodrome Forecast
Issued by NWS Bismarck, ND

Home | Current Version | Previous Version | Text Only | Print | Product List | Glossary On
Versions: 1 2 3 4 5 6 7 8 9 10 11 12 13 14 15 16 17 18
980
FTUS43 KBIS 081127
TAFBIS
TAF
KBIS 081127Z 0812/0912 32019G28KT P6SM SCT120
     FM082000 33018G26KT P6SM SCT080 BKN100
     FM090000 33010KT P6SM SCT050 BKN120
     FM090300 34006KT P6SM BKN070
     FM091100 36005KT P6SM BKN025=

USA.gov is the U.S. government's official web portal to all federal, state and local government web resources and services.